ADDS METAR Data INFO
IDs: Format: Raw Decoded Include TAF

Data at: 2255 UTC 22 Jun 2018

K21D 222235Z AUTO 00000KT 10SM CLR 27/13 A2983 RMK AO2
K21D 222215Z AUTO 00000KT 10SM CLR 27/13 A2984 RMK AO2
K21D 222155Z AUTO 12004KT 10SM CLR 27/14 A2984 RMK AO2
K21D 222135Z AUTO 11005KT 10SM CLR 26/14 A2984 RMK AO2
K21D 222115Z AUTO 00000KT 10SM SCT055 26/15 A2985 RMK AO2
K21D 222055Z AUTO 00000KT 10SM SCT055 26/14 A2985 RMK AO2
K21D 222035Z AUTO 04006KT 10SM SCT050 26/15 A2986 RMK AO2
K21D 222015Z AUTO 00000KT 10SM SCT050 26/16 A2986 RMK AO2
K21D 221955Z AUTO 00000KT 10SM CLR 26/16 A2987 RMK AO2
K21D 221935Z AUTO 00000KT 10SM CLR 26/15 A2988 RMK AO2
K21D 221915Z AUTO 13003KT 10SM CLR 26/15 A2988 RMK AO2
K21D 221855Z AUTO 07004KT 10SM CLR 26/15 A2988 RMK AO2
K21D 221835Z AUTO 08004KT 10SM CLR 25/15 A2989 RMK AO2
K21D 221815Z AUTO 07004KT 10SM CLR 25/16 A2989 RMK AO2
K21D 221755Z AUTO 09006KT 10SM CLR 25/17 A2989 RMK AO2
K21D 221735Z AUTO 06005KT 10SM CLR 25/17 A2989 RMK AO2
K21D 221716Z AUTO 05004KT 10SM CLR 23/17 A2990 RMK AO2
K21D 221655Z AUTO 00000KT 10SM CLR 22/17 A2990 RMK AO2
K21D 221635Z AUTO 06003KT 10SM CLR 22/17 A2991 RMK AO2
K21D 221615Z AUTO 00000KT 10SM CLR 22/16 A2992 RMK AO2
K21D 221555Z AUTO 08003KT 10SM CLR 22/17 A2992 RMK AO2
K21D 221535Z AUTO 00000KT 10SM CLR 21/16 A2992 RMK AO2
K21D 221515Z AUTO 00000KT 10SM CLR 21/16 A2992 RMK AO2
K21D 221455Z AUTO 00000KT 10SM CLR 21/16 A2992 RMK AO2
K21D 221435Z AUTO 06003KT 10SM CLR 21/16 A2992 RMK AO2
K21D 221415Z AUTO 00000KT 10SM CLR 21/16 A2992 RMK AO2
K21D 221355Z AUTO 00000KT 10SM CLR 21/16 A2992 RMK AO2
K21D 221335Z AUTO 00000KT 10SM CLR 20/16 A2992 RMK AO2
K21D 221315Z AUTO 00000KT 10SM CLR 19/15 A2992 RMK AO2
K21D 221255Z AUTO 06003KT 10SM CLR 18/15 A2992 RMK AO2
K21D 221235Z AUTO 00000KT 10SM CLR 17/15 A2993 RMK AO2
K21D 221215Z AUTO 04003KT 10SM CLR 16/14 A2992 RMK AO2
K21D 221155Z AUTO 00000KT 10SM CLR 16/14 A2993 RMK AO2
K21D 221135Z AUTO 05004KT 10SM CLR 16/14 A2993 RMK AO2
K21D 221115Z AUTO 05003KT 10SM CLR 15/14 A2993 RMK AO2
K21D 221055Z AUTO 03004KT 10SM CLR 15/14 A2992 RMK AO2
K21D 221035Z AUTO 00000KT 7SM CLR 15/14 A2992 RMK AO2
K21D 221015Z AUTO 00000KT 10SM CLR 15/14 A2992 RMK AO2
K21D 220955Z AUTO 00000KT 10SM CLR 15/14 A2992 RMK AO2
K21D 220935Z AUTO 00000KT 10SM CLR 16/14 A2991 RMK AO2
K21D 220915Z AUTO 00000KT 10SM CLR 16/15 A2991 RMK AO2
K21D 220855Z AUTO 00000KT 10SM CLR 16/15 A2991 RMK AO2
K21D 220835Z AUTO 04003KT 10SM CLR 16/15 A2990 RMK AO2
K21D 220815Z AUTO 06004KT 10SM CLR 16/15 A2990 RMK AO2
K21D 220755Z AUTO 00000KT 10SM CLR 16/15 A2990 RMK AO2
K21D 220735Z AUTO 06003KT 10SM CLR 16/15 A2990 RMK AO2
K21D 220715Z AUTO 05003KT 10SM CLR 16/15 A2991 RMK AO2
K21D 220655Z AUTO 05003KT 10SM CLR 16/16 A2991 RMK AO2
K21D 220635Z AUTO 00000KT 10SM CLR 17/16 A2991 RMK AO2
K21D 220615Z AUTO 00000KT 10SM CLR 17/16 A2991 RMK AO2
K21D 220555Z AUTO 00000KT 10SM CLR 17/16 A2992 RMK AO2
K21D 220535Z AUTO 00000KT 10SM CLR 18/16 A2992 RMK AO2
K21D 220515Z AUTO 00000KT 10SM CLR 18/16 A2992 RMK AO2
K21D 220455Z AUTO 02003KT 10SM CLR 19/16 A2992 RMK AO2
K21D 220436Z AUTO 02003KT 10SM CLR 19/17 A2992 RMK AO2
K21D 220415Z AUTO 02003KT 10SM CLR 20/17 A2992 RMK AO2
K21D 220355Z AUTO 02003KT 10SM CLR 20/17 A2992 RMK AO2
K21D 220335Z AUTO 02003KT 10SM CLR 20/17 A2992 RMK AO2
K21D 220315Z AUTO 00000KT 10SM CLR 19/18 A2992 RMK AO2
K21D 220255Z AUTO 00000KT 10SM CLR 19/18 A2992 RMK AO2
K21D 220235Z AUTO 16004KT 10SM CLR 20/18 A2991 RMK AO2
K21D 220215Z AUTO 00000KT 10SM CLR 20/18 A2990 RMK AO2
K21D 220155Z AUTO 00000KT 10SM SCT050 21/19 A2989 RMK AO2
K21D 220135Z AUTO 00000KT 10SM SCT050 22/18 A2990 RMK AO2
K21D 220115Z AUTO 00000KT 10SM CLR 22/18 A2989 RMK AO2
K21D 220055Z AUTO 00000KT 10SM CLR 23/18 A2989 RMK AO2
K21D 220035Z AUTO 00000KT 10SM CLR 23/18 A2989 RMK AO2
K21D 220015Z AUTO 00000KT 10SM CLR 23/17 A2988 RMK AO2
K21D 212355Z AUTO 35003KT 10SM CLR 24/17 A2988 RMK AO2
K21D 212335Z AUTO 36003KT 10SM CLR 24/17 A2989 RMK AO2
K21D 212315Z AUTO 02003KT 10SM CLR 25/17 A2989 RMK AO2
K21D 212255Z AUTO 00000KT 10SM CLR 24/17 A2989 RMK AO2
K21D 212235Z AUTO 02004KT 10SM CLR 25/16 A2989 RMK AO2
K21D 212215Z AUTO 07004KT 10SM SCT048 25/16 A2990 RMK AO2
K21D 212155Z AUTO 07004KT 10SM SCT048 SCT060 24/16 A2990 RMK AO2
K21D 212135Z AUTO 00000KT 10SM CLR 24/16 A2990 RMK AO2
K21D 212115Z AUTO 09003KT 7SM CLR 25/17 A2990 RMK AO2
K21D 212055Z AUTO 10004KT 10SM CLR 24/16 A2990 RMK AO2
K21D 212035Z AUTO 09005KT 10SM CLR 24/16 A2990 RMK AO2
K21D 212015Z AUTO 09006KT 10SM CLR 24/16 A2991 RMK AO2
K21D 211955Z AUTO 07007KT 10SM CLR 24/16 A2991 RMK AO2
K21D 211935Z AUTO 06010KT 10SM SCT038 23/15 A2991 RMK AO2
K21D 211915Z AUTO 09010KT 10SM SCT038 SCT044 24/16 A2991 RMK AO2
K21D 211855Z AUTO 08007KT 10SM CLR 24/16 A2991 RMK AO2
K21D 211836Z AUTO 08007KT 10SM SCT033 SCT044 23/15 A2991 RMK AO2
K21D 211815Z AUTO 05009KT 10SM SCT033 23/16 A2991 RMK AO2
K21D 211755Z AUTO 07007KT 10SM CLR 23/17 A2991 RMK AO2
K21D 211735Z AUTO 10006KT 10SM CLR 23/16 A2991 RMK AO2
K21D 211715Z AUTO 09005KT 10SM CLR 22/16 A2991 RMK AO2
K21D 211655Z AUTO 07008KT 10SM CLR 22/15 A2991 RMK AO2
K21D 211635Z AUTO 08005KT 10SM CLR 22/16 A2991 RMK AO2
K21D 211615Z AUTO 07005KT 10SM CLR 21/16 A2990 RMK AO2
K21D 211555Z AUTO 08008KT 10SM CLR 21/15 A2991 RMK AO2
K21D 211535Z AUTO 08006KT 10SM CLR 21/15 A2991 RMK AO2
K21D 211515Z AUTO 09008KT 10SM CLR 21/15 A2990 RMK AO2
K21D 211455Z AUTO 08007KT 10SM CLR 21/15 A2990 RMK AO2
K21D 211435Z AUTO 08009KT 10SM CLR 21/15 A2990 RMK AO2
K21D 211355Z AUTO 06009KT 10SM CLR 20/16 A2990 RMK AO2
K21D 211335Z AUTO 05007KT 10SM CLR 20/16 A2990 RMK AO2
K21D 211315Z AUTO 06007KT 10SM CLR 19/16 A2990 RMK AO2
K21D 211255Z AUTO 04007KT 10SM CLR 18/16 A2989 RMK AO2
K21D 211235Z AUTO 04005KT 10SM CLR 18/16 A2989 RMK AO2
K21D 211215Z AUTO 04005KT 10SM CLR 18/16 A2988 RMK AO2
K21D 211155Z AUTO 05005KT 10SM CLR 18/16 A2988 RMK AO2
K21D 211135Z AUTO 06004KT 10SM CLR 18/16 A2987 RMK AO2
K21D 211115Z AUTO 05005KT 10SM CLR 18/16 A2987 RMK AO2